This is the latest recevied weather packets stored in our database for station/object KB4JHU-15. If no packets are shown the sender has not sent any weather packets the latest 10 day(s).
| Time | Temp. | Humidity | Pressure | Rain* | Wind** | Luminosity | Snow |
|---|---|---|---|---|---|---|---|
| 1778045830 | 21.67° C | 63% | - | 0 mm | - | - | - |
| 1778044029 | 21.67° C | 65% | - | 0 mm | - | - | - |
| 1778042228 | 21.11° C | 65% | - | 0 mm | - | - | - |
| 1778040429 | 21.11° C | 65% | - | 0 mm | - | - | - |
| 1778038626 | 21.11° C | 66% | - | 0 mm | - | - | - |
| 1778036825 | 20.56° C | 66% | - | 0 mm | - | - | - |
| 1778035024 | 21.11° C | 66% | - | 0 mm | - | - | - |
| 1778033224 | 21.11° C | 64% | - | 0 mm | - | - | - |
| 1778031422 | 21.11° C | 62% | - | 0 mm | - | - | - |
| 1778029621 | 21.11° C | 62% | - | 0 mm | - | - | - |
| 1778027820 | 21.67° C | 60% | - | 0 mm | - | - | - |
| 1778026019 | 21.67° C | 58% | - | 0 mm | - | - | - |
| 1778024218 | 22.22° C | 58% | - | 0 mm | - | - | - |
| 1778022418 | 22.22° C | 56% | - | 0 mm | - | - | - |
| 1778020616 | 22.22° C | 56% | - | 0 mm | - | - | - |
| 1778018815 | 22.22° C | 57% | - | 0 mm | - | - | - |
| 1778017014 | 21.67° C | 59% | - | 0 mm | - | - | - |
| 1778015213 | 22.22° C | 56% | - | 0 mm | - | - | - |
| 1778013412 | 21.67° C | 55% | - | 0 mm | - | - | - |
| 1778011611 | 21.11° C | 56% | - | 0 mm | - | - | - |
| 1778009810 | 22.78° C | 47% | - | 0 mm | - | - | - |
| 1778008009 | 22.78° C | 45% | - | 0 mm | - | - | - |
| 1778006208 | 23.33° C | 50% | - | 0 mm | - | - | - |
| 1778004407 | 22.78° C | 51% | - | 0 mm | - | - | - |
| 1778002606 | 22.78° C | 49% | - | 0 mm | - | - | - |
* Rain latest hour (hover to see other rain measurements)
** Current wind speed in m/s (hover to see current wind gust speed)